createdAt,value
2022-11-13T00:00:06.349Z,2.21
2022-11-13T00:02:52.360Z,2.22
2022-11-13T00:05:38.256Z,2.12
2022-11-13T00:08:24.120Z,2.14
2022-11-13T00:11:15.100Z,2.13
2022-11-13T00:14:01.030Z,2.11
2022-11-13T00:16:47.061Z,2.10
2022-11-13T00:19:32.673Z,2.04
2022-11-13T00:22:18.309Z,2.07
2022-11-13T00:25:04.260Z,2.08
2022-11-13T00:27:50.070Z,2.01
2022-11-13T00:30:36.163Z,2.04
2022-11-13T00:33:45.205Z,2.13
2022-11-13T00:36:29.163Z,2.08
2022-11-13T00:39:15.022Z,2.14
2022-11-13T00:42:00.819Z,2.22
2022-11-13T00:44:46.650Z,2.34
2022-11-13T00:47:32.472Z,2.35
2022-11-13T00:50:18.806Z,2.18
2022-11-13T00:53:04.731Z,2.09
2022-11-13T00:55:51.407Z,2.14
2022-11-13T00:58:36.939Z,2.04
2022-11-13T01:01:23.790Z,2.01
2022-11-13T01:04:09.437Z,1.95
2022-11-13T01:06:55.739Z,1.96
2022-11-13T01:09:41.597Z,2.13
2022-11-13T01:12:27.255Z,2.12
2022-11-13T01:15:13.016Z,2.17
2022-11-13T01:17:58.917Z,2.02
2022-11-13T01:20:45.668Z,2.01
2022-11-13T01:23:31.707Z,1.95
2022-11-13T01:26:25.384Z,1.84
2022-11-13T01:29:12.652Z,1.78
2022-11-13T01:31:58.745Z,1.65
2022-11-13T01:34:44.234Z,1.66
2022-11-13T01:37:29.920Z,1.58
2022-11-13T01:40:15.969Z,1.60
2022-11-13T01:43:30.502Z,1.60
2022-11-13T01:46:40.421Z,1.55
2022-11-13T01:49:36.540Z,1.54
2022-11-13T01:52:29.947Z,1.51
2022-11-13T01:55:19.203Z,1.46
2022-11-13T01:58:07.584Z,1.54
2022-11-13T02:00:53.423Z,1.67
2022-11-13T02:03:39.141Z,1.65
2022-11-13T02:06:28.358Z,1.73
2022-11-13T02:09:16.197Z,1.86
2022-11-13T02:12:02.808Z,1.80
2022-11-13T02:14:54.057Z,1.81
2022-11-13T02:17:57.096Z,1.79
2022-11-13T02:21:22.470Z,1.81
2022-11-13T02:24:54.950Z,1.78
2022-11-13T02:27:45.509Z,1.72
2022-11-13T02:30:34.900Z,1.65
2022-11-13T02:33:32.945Z,1.69
2022-11-13T02:36:21.231Z,1.69
2022-11-13T02:39:11.804Z,1.84
2022-11-13T02:41:57.459Z,1.87
2022-11-13T02:44:43.318Z,1.98
2022-11-13T02:47:29.648Z,2.11
2022-11-13T02:50:16.540Z,2.13
2022-11-13T02:53:03.160Z,2.10
2022-11-13T02:55:48.998Z,2.02
2022-11-13T02:58:34.927Z,1.91
2022-11-13T03:01:21.013Z,1.91
2022-11-13T03:04:06.813Z,2.06
2022-11-13T03:06:52.471Z,2.05
2022-11-13T03:09:38.867Z,2.00
2022-11-13T03:12:24.567Z,1.90
2022-11-13T03:15:11.212Z,1.75
2022-11-13T03:17:56.879Z,1.77
2022-11-13T03:20:44.342Z,1.84
2022-11-13T03:23:30.098Z,1.81
2022-11-13T03:26:17.540Z,1.71
2022-11-13T03:29:03.450Z,1.57
2022-11-13T03:31:49.516Z,1.79
2022-11-13T03:34:35.242Z,2.00
2022-11-13T03:37:21.345Z,2.02
2022-11-13T03:40:08.276Z,1.82
2022-11-13T03:42:54.323Z,1.78
2022-11-13T03:45:40.413Z,1.81
2022-11-13T03:48:26.937Z,1.94
2022-11-13T03:51:13.067Z,2.01
2022-11-13T03:54:00.359Z,2.26
2022-11-13T03:56:46.212Z,2.08
2022-11-13T03:59:32.087Z,1.85
2022-11-13T04:02:18.336Z,1.82
2022-11-13T04:05:04.816Z,1.67
2022-11-13T04:07:51.332Z,1.46
2022-11-13T04:10:36.910Z,1.48
2022-11-13T04:13:22.847Z,1.47
2022-11-13T04:16:08.998Z,1.49
2022-11-13T04:18:57.966Z,1.48
2022-11-13T04:21:43.583Z,1.52
2022-11-13T04:24:29.525Z,1.53
2022-11-13T04:27:15.188Z,1.50
2022-11-13T04:30:00.762Z,1.39
2022-11-13T04:32:46.744Z,1.54
2022-11-13T04:35:35.740Z,1.78
2022-11-13T04:38:21.822Z,1.71
2022-11-13T04:41:27.151Z,1.52
2022-11-13T04:44:14.077Z,1.51
2022-11-13T04:47:00.277Z,1.49
2022-11-13T04:49:46.403Z,1.48
2022-11-13T04:52:36.309Z,1.41
2022-11-13T04:55:22.412Z,1.41
2022-11-13T04:58:08.093Z,1.42
2022-11-13T05:00:54.178Z,1.43
2022-11-13T05:03:40.331Z,1.50
2022-11-13T05:06:26.202Z,1.53
2022-11-13T05:09:11.999Z,1.54
2022-11-13T05:11:57.476Z,1.52
2022-11-13T05:14:43.538Z,1.55
2022-11-13T05:17:29.173Z,1.62
2022-11-13T05:20:15.364Z,1.62
2022-11-13T05:23:01.245Z,1.76
2022-11-13T05:25:46.732Z,1.65
2022-11-13T05:28:33.300Z,1.46
2022-11-13T05:31:19.371Z,1.47
2022-11-13T05:34:06.309Z,1.47
2022-11-13T05:36:52.002Z,1.42
2022-11-13T05:39:37.835Z,1.48
2022-11-13T05:42:23.318Z,1.60
2022-11-13T05:45:10.082Z,1.73
2022-11-13T05:47:55.665Z,2.03
2022-11-13T05:50:41.214Z,2.18
2022-11-13T05:53:28.231Z,2.27
2022-11-13T05:56:18.526Z,2.13
2022-11-13T05:59:05.253Z,1.96
2022-11-13T06:01:51.108Z,1.95
2022-11-13T06:04:37.182Z,2.04
2022-11-13T06:07:23.236Z,2.16
2022-11-13T06:10:09.670Z,2.31
2022-11-13T06:12:56.033Z,2.25
2022-11-13T06:15:42.053Z,2.12
2022-11-13T06:18:29.324Z,2.14
2022-11-13T06:21:20.944Z,2.17
2022-11-13T06:24:08.531Z,2.28
2022-11-13T06:26:54.364Z,2.49
2022-11-13T06:29:40.137Z,2.63
2022-11-13T06:32:25.496Z,2.87
2022-11-13T06:35:11.137Z,3.10
2022-11-13T06:37:57.074Z,3.06
2022-11-13T06:40:42.837Z,3.05
2022-11-13T06:43:30.064Z,3.13
2022-11-13T06:46:19.626Z,3.32
2022-11-13T06:49:05.225Z,3.27
2022-11-13T06:51:51.274Z,3.21
2022-11-13T06:54:37.538Z,3.23
2022-11-13T06:57:23.347Z,3.48
2022-11-13T07:00:10.273Z,3.76
2022-11-13T07:02:56.450Z,4.14
2022-11-13T07:05:42.438Z,4.64
2022-11-13T07:08:28.191Z,5.49
2022-11-13T07:11:18.267Z,6.46
2022-11-13T07:14:05.469Z,7.59
2022-11-13T07:17:08.550Z,8.46
2022-11-13T07:19:55.576Z,8.31
2022-11-13T07:22:41.020Z,9.24
2022-11-13T07:25:28.666Z,9.13
2022-11-13T07:28:14.643Z,9.13
2022-11-13T07:31:01.188Z,10.38
2022-11-13T07:33:50.120Z,11.31
2022-11-13T07:36:35.937Z,13.09
2022-11-13T07:39:21.902Z,14.79
2022-11-13T07:42:07.639Z,16.14
2022-11-13T07:44:54.844Z,15.39
2022-11-13T07:47:41.882Z,15.97
2022-11-13T07:50:30.035Z,17.23
2022-11-13T07:53:16.355Z,16.98
2022-11-13T07:56:03.872Z,17.37
2022-11-13T07:58:50.302Z,17.94
2022-11-13T08:01:36.474Z,19.61
2022-11-13T08:04:22.502Z,21.50
2022-11-13T08:07:11.077Z,21.25
2022-11-13T08:09:56.945Z,20.99
2022-11-13T08:12:44.212Z,21.28
2022-11-13T08:15:31.355Z,21.71
2022-11-13T08:18:17.509Z,21.86
2022-11-13T08:21:10.518Z,21.27
2022-11-13T08:23:59.669Z,21.35
2022-11-13T08:26:45.511Z,21.96
2022-11-13T08:29:31.735Z,22.16
2022-11-13T08:32:19.431Z,21.97
2022-11-13T08:35:06.291Z,22.10
2022-11-13T08:37:52.153Z,21.81
2022-11-13T08:40:38.018Z,21.87
2022-11-13T08:43:24.121Z,22.41
2022-11-13T08:46:09.794Z,22.45
2022-11-13T08:48:56.136Z,23.00
2022-11-13T08:51:41.894Z,23.15
2022-11-13T08:54:28.089Z,23.12
2022-11-13T08:57:13.699Z,22.96
2022-11-13T08:59:59.523Z,22.71
2022-11-13T09:02:45.678Z,23.77
2022-11-13T09:05:31.779Z,23.87
2022-11-13T09:08:17.631Z,24.32
2022-11-13T09:11:07.180Z,25.04
2022-11-13T09:13:53.722Z,26.62
2022-11-13T09:16:39.474Z,27.18
2022-11-13T09:19:25.644Z,27.16
2022-11-13T09:22:12.228Z,27.10
2022-11-13T09:24:58.099Z,27.06
2022-11-13T09:27:44.129Z,27.28
2022-11-13T09:30:30.957Z,27.82
2022-11-13T09:33:17.247Z,27.26
2022-11-13T09:36:03.744Z,27.55
2022-11-13T09:38:50.886Z,26.82
2022-11-13T09:42:20.771Z,25.81
2022-11-13T09:45:13.942Z,25.07
2022-11-13T09:48:24.579Z,24.45
2022-11-13T09:51:28.515Z,23.53
2022-11-13T09:54:15.305Z,22.99
2022-11-13T09:57:56.008Z,22.40
2022-11-13T10:00:42.035Z,22.12
2022-11-13T10:04:03.447Z,20.82
2022-11-13T10:07:05.907Z,20.96
2022-11-13T10:10:20.607Z,20.60
2022-11-13T10:13:11.644Z,20.68
2022-11-13T10:16:14.537Z,19.92
2022-11-13T10:19:30.126Z,20.36
2022-11-13T10:22:57.988Z,20.29
2022-11-13T10:25:45.376Z,21.32
2022-11-13T10:31:52.401Z,20.83
2022-11-13T10:34:38.788Z,20.98
2022-11-13T10:37:52.444Z,20.87
2022-11-13T10:40:40.876Z,21.45
2022-11-13T10:43:27.772Z,22.01
2022-11-13T10:46:26.726Z,23.25
2022-11-13T10:49:29.231Z,23.45
2022-11-13T10:52:30.714Z,24.51
2022-11-13T10:55:35.774Z,25.41
2022-11-13T10:58:21.899Z,26.53
2022-11-13T11:01:22.924Z,26.75
2022-11-13T11:04:30.138Z,27.88
2022-11-13T11:07:21.012Z,28.66
2022-11-13T11:10:57.696Z,29.17
2022-11-13T11:13:44.396Z,28.97
2022-11-13T11:16:31.172Z,29.17
2022-11-13T11:19:19.939Z,29.25
2022-11-13T11:22:19.775Z,28.77
2022-11-13T11:25:25.723Z,28.86
2022-11-13T11:28:31.704Z,28.12
2022-11-13T11:31:44.813Z,27.09
2022-11-13T11:34:54.954Z,25.48
2022-11-13T11:38:21.864Z,24.46
2022-11-13T11:41:17.680Z,24.38
2022-11-13T11:44:33.428Z,24.66
2022-11-13T11:47:19.527Z,24.74
2022-11-13T11:50:13.614Z,24.70
2022-11-13T11:53:13.301Z,24.13
2022-11-13T11:56:18.282Z,24.23
2022-11-13T11:59:14.411Z,24.38
2022-11-13T12:02:53.022Z,23.79
2022-11-13T12:06:14.943Z,23.67
2022-11-13T12:09:30.890Z,23.94
2022-11-13T12:12:41.476Z,23.54
2022-11-13T12:15:44.864Z,23.65
2022-11-13T12:18:53.647Z,22.98
2022-11-13T12:22:04.625Z,22.78
2022-11-13T12:25:12.405Z,22.53
2022-11-13T12:28:20.993Z,22.40
2022-11-13T12:31:16.254Z,22.13
2022-11-13T12:34:15.644Z,21.63
2022-11-13T12:37:10.315Z,21.35
2022-11-13T12:40:15.617Z,20.23
2022-11-13T12:43:45.007Z,19.26
2022-11-13T12:46:40.349Z,18.20
2022-11-13T12:49:37.064Z,16.91
2022-11-13T12:52:24.574Z,16.13
2022-11-13T12:55:30.781Z,15.62
2022-11-13T12:58:34.953Z,14.93
2022-11-13T13:01:22.826Z,14.53
2022-11-13T13:04:44.666Z,13.66
2022-11-13T13:08:27.476Z,13.53
2022-11-13T13:11:57.309Z,12.82
2022-11-13T13:15:19.284Z,12.35
2022-11-13T13:18:17.977Z,12.28
2022-11-13T13:21:16.057Z,12.26
2022-11-13T13:24:27.559Z,12.27
2022-11-13T13:27:30.894Z,12.02
2022-11-13T13:30:26.242Z,11.79
2022-11-13T13:33:25.431Z,11.73
2022-11-13T13:36:37.858Z,11.88
2022-11-13T13:39:52.461Z,11.82
2022-11-13T13:43:09.716Z,11.41
2022-11-13T13:46:22.654Z,11.24
2022-11-13T13:49:17.970Z,11.32
2022-11-13T13:52:05.454Z,11.26
2022-11-13T13:54:51.567Z,11.18
2022-11-13T13:57:42.265Z,11.14
2022-11-13T14:00:28.786Z,10.98
2022-11-13T14:03:20.996Z,10.83
2022-11-13T14:06:11.038Z,10.80
2022-11-13T14:09:09.737Z,10.69
2022-11-13T14:12:09.873Z,10.58
2022-11-13T14:14:56.104Z,10.47
2022-11-13T14:17:41.619Z,10.43
2022-11-13T14:20:28.284Z,10.40
2022-11-13T14:23:22.519Z,10.29
2022-11-13T14:26:12.047Z,10.20
2022-11-13T14:29:02.976Z,10.08
2022-11-13T14:31:49.364Z,9.95
2022-11-13T14:34:36.934Z,9.81
2022-11-13T14:37:39.429Z,9.65
2022-11-13T14:40:26.006Z,9.49
2022-11-13T14:43:27.714Z,9.34
2022-11-13T14:46:37.091Z,9.22
2022-11-13T14:49:36.036Z,9.11
2022-11-13T14:52:28.009Z,9.04
2022-11-13T14:55:34.388Z,8.99
2022-11-13T14:58:36.391Z,8.81
2022-11-13T15:01:25.121Z,8.63
2022-11-13T15:04:11.226Z,8.41
2022-11-13T15:07:03.835Z,8.32
2022-11-13T15:09:50.319Z,8.30
2022-11-13T15:12:36.196Z,8.18
2022-11-13T15:15:28.322Z,8.10
2022-11-13T15:18:19.420Z,7.85
2022-11-13T15:21:05.470Z,7.68
2022-11-13T15:23:51.148Z,7.58
2022-11-13T15:26:37.834Z,7.56
2022-11-13T15:29:23.598Z,7.44
2022-11-13T15:32:14.831Z,7.27
2022-11-13T15:35:00.795Z,7.26
2022-11-13T15:37:46.684Z,7.23
2022-11-13T15:40:32.476Z,7.06
2022-11-13T15:43:22.916Z,6.91
2022-11-13T15:46:18.027Z,6.87
2022-11-13T15:49:03.846Z,6.89
2022-11-13T15:51:50.012Z,6.76
2022-11-13T15:54:38.389Z,6.75
2022-11-13T15:57:27.898Z,6.64
2022-11-13T16:00:21.440Z,6.55
2022-11-13T16:03:11.831Z,6.64
2022-11-13T16:05:59.808Z,6.71
2022-11-13T16:08:46.004Z,6.64
2022-11-13T16:11:34.516Z,6.47
2022-11-13T16:14:24.495Z,6.36
2022-11-13T16:17:20.215Z,6.28
2022-11-13T16:20:07.960Z,6.27
2022-11-13T16:22:53.761Z,6.21
2022-11-13T16:25:39.448Z,6.26
2022-11-13T16:28:25.576Z,6.23
2022-11-13T16:31:12.446Z,6.19
2022-11-13T16:33:58.401Z,6.15
2022-11-13T16:36:44.699Z,6.32
2022-11-13T16:39:30.378Z,6.27
2022-11-13T16:42:17.634Z,6.10
2022-11-13T16:45:03.803Z,5.87
2022-11-13T16:47:50.857Z,5.85
2022-11-13T16:50:39.592Z,5.75
2022-11-13T16:53:25.950Z,5.75
2022-11-13T16:56:20.863Z,5.71
2022-11-13T16:59:06.728Z,5.71
2022-11-13T17:01:56.118Z,5.96
2022-11-13T17:04:44.008Z,5.72
2022-11-13T17:07:30.045Z,5.69
2022-11-13T17:10:36.071Z,5.61
2022-11-13T17:13:22.088Z,5.63
2022-11-13T17:16:11.618Z,5.72
2022-11-13T17:18:59.328Z,5.66
2022-11-13T17:21:45.554Z,5.68
2022-11-13T17:24:31.490Z,5.63
2022-11-13T17:27:18.012Z,5.57
2022-11-13T17:30:05.007Z,5.64
2022-11-13T17:32:50.967Z,5.75
2022-11-13T17:35:36.724Z,5.71
2022-11-13T17:38:22.778Z,5.74
2022-11-13T17:41:12.086Z,5.72
2022-11-13T17:44:01.301Z,5.65
2022-11-13T17:46:48.596Z,5.39
2022-11-13T17:49:34.616Z,5.42
2022-11-13T17:52:20.473Z,5.38
2022-11-13T17:55:07.729Z,5.29
2022-11-13T17:57:53.631Z,5.24
2022-11-13T18:00:39.530Z,5.25
2022-11-13T18:03:25.502Z,5.33
2022-11-13T18:06:19.720Z,5.38
2022-11-13T18:09:06.718Z,5.29
2022-11-13T18:11:52.674Z,5.13
2022-11-13T18:14:38.619Z,5.25
2022-11-13T18:17:25.064Z,5.44
2022-11-13T18:20:11.298Z,5.60
2022-11-13T18:22:57.572Z,5.56
2022-11-13T18:25:43.723Z,5.61
2022-11-13T18:28:29.720Z,5.60
2022-11-13T18:31:18.581Z,5.46
2022-11-13T18:34:06.765Z,5.33
2022-11-13T18:36:52.977Z,5.18
2022-11-13T18:39:38.990Z,5.06
2022-11-13T18:42:25.398Z,5.08
2022-11-13T18:45:11.952Z,4.99
2022-11-13T18:47:58.128Z,4.99
2022-11-13T18:50:55.314Z,5.04
2022-11-13T18:53:41.982Z,5.11
2022-11-13T18:56:31.686Z,5.15
2022-11-13T18:59:17.729Z,5.01
2022-11-13T19:02:03.741Z,5.11
2022-11-13T19:04:49.881Z,4.84
2022-11-13T19:07:35.747Z,4.58
2022-11-13T19:10:21.653Z,4.59
2022-11-13T19:13:09.025Z,4.64
2022-11-13T19:15:55.757Z,4.64
2022-11-13T19:18:44.749Z,4.75
2022-11-13T19:21:32.819Z,4.52
2022-11-13T19:24:18.682Z,4.24
2022-11-13T19:27:04.926Z,4.04
2022-11-13T19:29:50.447Z,3.96
2022-11-13T19:32:35.909Z,3.98
2022-11-13T19:35:21.724Z,4.12
2022-11-13T19:38:08.576Z,4.17
2022-11-13T19:40:54.557Z,4.12
2022-11-13T19:43:42.573Z,4.08
2022-11-13T19:46:32.100Z,4.16
2022-11-13T19:49:17.924Z,4.05
2022-11-13T19:52:04.010Z,3.91
2022-11-13T19:54:49.839Z,3.91
2022-11-13T19:57:35.672Z,3.91
2022-11-13T20:00:21.793Z,3.93
2022-11-13T20:03:07.992Z,3.81
2022-11-13T20:05:59.486Z,3.73
2022-11-13T20:08:45.718Z,3.75
2022-11-13T20:11:32.502Z,3.75
2022-11-13T20:14:18.484Z,3.82
2022-11-13T20:17:04.483Z,3.79
2022-11-13T20:19:50.522Z,3.66
2022-11-13T20:22:36.464Z,3.60
2022-11-13T20:25:23.030Z,3.63
2022-11-13T20:28:08.733Z,3.67
2022-11-13T20:31:16.503Z,3.58
2022-11-13T20:34:02.549Z,3.47
2022-11-13T20:36:49.697Z,3.45
2022-11-13T20:39:35.514Z,3.44
2022-11-13T20:42:21.051Z,3.50
2022-11-13T20:45:07.508Z,3.49
2022-11-13T20:47:53.393Z,3.70
2022-11-13T20:50:39.065Z,3.62
2022-11-13T20:53:24.856Z,3.66
2022-11-13T20:56:10.960Z,3.65
2022-11-13T20:58:57.413Z,3.59
2022-11-13T21:01:43.522Z,3.49
2022-11-13T21:04:29.491Z,3.41
2022-11-13T21:07:15.161Z,3.50
2022-11-13T21:10:02.201Z,3.47
2022-11-13T21:12:47.735Z,3.45
2022-11-13T21:15:37.004Z,3.43
2022-11-13T21:18:23.104Z,3.53
2022-11-13T21:21:16.420Z,3.40
2022-11-13T21:24:02.472Z,3.32
2022-11-13T21:26:51.782Z,3.37
2022-11-13T21:29:37.516Z,3.32
2022-11-13T21:32:23.401Z,3.37
2022-11-13T21:35:09.212Z,3.35
2022-11-13T21:37:55.709Z,3.38
2022-11-13T21:40:41.739Z,3.26
2022-11-13T21:43:27.806Z,3.15
2022-11-13T21:46:14.514Z,3.07
2022-11-13T21:49:04.912Z,3.22
2022-11-13T21:51:50.753Z,3.11
2022-11-13T21:54:36.548Z,3.01
2022-11-13T21:57:24.140Z,3.08
2022-11-13T22:00:10.744Z,3.03
2022-11-13T22:02:56.810Z,2.95
2022-11-13T22:05:42.979Z,2.87
2022-11-13T22:08:28.886Z,2.81
2022-11-13T22:11:15.394Z,2.79
2022-11-13T22:14:02.294Z,2.86
2022-11-13T22:16:48.758Z,2.75
2022-11-13T22:19:36.405Z,2.65
2022-11-13T22:22:22.331Z,2.59
2022-11-13T22:25:08.500Z,2.72
2022-11-13T22:27:54.316Z,2.55
2022-11-13T22:30:39.948Z,2.70
2022-11-13T22:33:31.292Z,2.67
2022-11-13T22:36:20.450Z,2.69
2022-11-13T22:39:06.640Z,2.58
2022-11-13T22:41:52.426Z,2.65
2022-11-13T22:44:54.767Z,2.60
2022-11-13T22:47:42.497Z,2.56
2022-11-13T22:50:28.078Z,2.54
2022-11-13T22:53:14.747Z,2.50
2022-11-13T22:56:13.842Z,2.59
2022-11-13T22:59:02.061Z,2.43
2022-11-13T23:01:48.053Z,2.54
2022-11-13T23:04:34.109Z,2.56
2022-11-13T23:07:20.154Z,2.62
2022-11-13T23:10:07.120Z,2.48
2022-11-13T23:12:52.794Z,2.54
2022-11-13T23:15:38.417Z,2.64
2022-11-13T23:18:24.068Z,2.61
2022-11-13T23:21:12.105Z,2.48
2022-11-13T23:23:58.771Z,2.49
2022-11-13T23:26:44.564Z,2.46
2022-11-13T23:29:30.668Z,2.45
2022-11-13T23:32:16.477Z,2.42
2022-11-13T23:35:02.770Z,2.34
2022-11-13T23:37:48.473Z,2.34
2022-11-13T23:40:35.675Z,2.32
2022-11-13T23:43:22.289Z,2.46
2022-11-13T23:46:07.943Z,2.45
2022-11-13T23:48:53.485Z,2.59
2022-11-13T23:51:39.594Z,2.65
2022-11-13T23:54:26.684Z,2.63
2022-11-13T23:57:12.780Z,2.72
2022-11-13T23:59:58.530Z,2.66
